Terminal Aerodrome Forecast
Issued by NWS

Home | Current Version | Previous Version | Graphics & Text | Print | Product List | Glossary On
Versions: 1 2 3 4 5 6 7 8 9 10 11 12 13 14 15 16 17
000
FTUS43 KICT 251727
TAFHUT
TAF
KHUT 251727Z 2518/2618 33008KT P6SM BKN035 OVC080
     FM260000 34012G20KT P6SM VCSH OVC045
     FM260300 34014KT P6SM VCSH OVC030
     FM260600 35016G24KT P6SM VCSH OVC015
     FM261200 34017G26KT P6SM OVC045=

USA.gov is the U.S. government's official web portal to all federal, state and local government web resources and services.